sensor_id;sensor_type;location;lat;lon;timestamp;temperature;humidity
20845;DHT22;10583;49.084;8.646;2023-05-07T00:00:47;13.00;99.90
20845;DHT22;10583;49.084;8.646;2023-05-07T00:03:16;13.00;99.90
20845;DHT22;10583;49.084;8.646;2023-05-07T00:05:44;12.90;99.90
20845;DHT22;10583;49.084;8.646;2023-05-07T00:08:11;12.90;99.90
20845;DHT22;10583;49.084;8.646;2023-05-07T00:10:38;12.90;99.90
20845;DHT22;10583;49.084;8.646;2023-05-07T00:13:06;12.90;99.90
20845;DHT22;10583;49.084;8.646;2023-05-07T00:15:32;12.90;99.90
20845;DHT22;10583;49.084;8.646;2023-05-07T00:17:59;12.80;99.90
20845;DHT22;10583;49.084;8.646;2023-05-07T00:20:27;12.80;99.90
20845;DHT22;10583;49.084;8.646;2023-05-07T00:22:54;12.80;99.90
20845;DHT22;10583;49.084;8.646;2023-05-07T00:25:21;12.80;99.90
20845;DHT22;10583;49.084;8.646;2023-05-07T00:27:48;12.70;99.90
20845;DHT22;10583;49.084;8.646;2023-05-07T00:30:15;12.70;99.90
20845;DHT22;10583;49.084;8.646;2023-05-07T00:32:42;12.70;99.90
20845;DHT22;10583;49.084;8.646;2023-05-07T00:35:10;12.80;99.90
20845;DHT22;10583;49.084;8.646;2023-05-07T00:37:38;12.80;99.90
20845;DHT22;10583;49.084;8.646;2023-05-07T00:40:07;12.80;99.90
20845;DHT22;10583;49.084;8.646;2023-05-07T00:42:34;12.80;99.90
20845;DHT22;10583;49.084;8.646;2023-05-07T00:45:01;12.80;99.90
20845;DHT22;10583;49.084;8.646;2023-05-07T00:47:28;12.80;99.90
20845;DHT22;10583;49.084;8.646;2023-05-07T00:49:56;12.80;99.90
20845;DHT22;10583;49.084;8.646;2023-05-07T00:52:25;12.70;99.90
20845;DHT22;10583;49.084;8.646;2023-05-07T00:54:54;12.70;99.90
20845;DHT22;10583;49.084;8.646;2023-05-07T00:57:21;12.60;99.90
20845;DHT22;10583;49.084;8.646;2023-05-07T00:59:51;12.60;99.90
20845;DHT22;10583;49.084;8.646;2023-05-07T01:02:18;12.60;99.90
20845;DHT22;10583;49.084;8.646;2023-05-07T01:04:45;12.60;99.90
20845;DHT22;10583;49.084;8.646;2023-05-07T01:07:12;12.60;99.90
20845;DHT22;10583;49.084;8.646;2023-05-07T01:09:39;12.60;99.90
20845;DHT22;10583;49.084;8.646;2023-05-07T01:12:08;12.50;99.90
20845;DHT22;10583;49.084;8.646;2023-05-07T01:14:35;12.50;99.90
20845;DHT22;10583;49.084;8.646;2023-05-07T01:17:02;12.60;99.90
20845;DHT22;10583;49.084;8.646;2023-05-07T01:19:30;12.50;99.90
20845;DHT22;10583;49.084;8.646;2023-05-07T01:22:02;12.50;99.90
20845;DHT22;10583;49.084;8.646;2023-05-07T01:24:32;12.50;99.90
20845;DHT22;10583;49.084;8.646;2023-05-07T01:26:59;12.50;99.90
20845;DHT22;10583;49.084;8.646;2023-05-07T01:29:27;12.50;99.90
20845;DHT22;10583;49.084;8.646;2023-05-07T01:31:57;12.50;99.90
20845;DHT22;10583;49.084;8.646;2023-05-07T01:34:25;12.50;99.90
20845;DHT22;10583;49.084;8.646;2023-05-07T01:36:54;12.40;99.90
20845;DHT22;10583;49.084;8.646;2023-05-07T01:39:24;12.40;99.90
20845;DHT22;10583;49.084;8.646;2023-05-07T01:41:53;12.50;99.90
20845;DHT22;10583;49.084;8.646;2023-05-07T01:44:21;12.50;99.90
20845;DHT22;10583;49.084;8.646;2023-05-07T01:46:48;12.40;99.90
20845;DHT22;10583;49.084;8.646;2023-05-07T01:49:16;12.50;99.90
20845;DHT22;10583;49.084;8.646;2023-05-07T01:51:43;12.50;99.90
20845;DHT22;10583;49.084;8.646;2023-05-07T01:54:10;12.50;99.90
20845;DHT22;10583;49.084;8.646;2023-05-07T01:56:37;12.50;99.90
20845;DHT22;10583;49.084;8.646;2023-05-07T01:59:05;12.50;99.90
20845;DHT22;10583;49.084;8.646;2023-05-07T02:01:32;12.60;99.90
20845;DHT22;10583;49.084;8.646;2023-05-07T02:03:59;12.60;99.90
20845;DHT22;10583;49.084;8.646;2023-05-07T02:06:25;12.60;99.90
20845;DHT22;10583;49.084;8.646;2023-05-07T02:08:52;12.60;99.90
20845;DHT22;10583;49.084;8.646;2023-05-07T02:11:19;12.60;99.90
20845;DHT22;10583;49.084;8.646;2023-05-07T02:13:46;12.70;99.90
20845;DHT22;10583;49.084;8.646;2023-05-07T02:16:14;12.70;99.90
20845;DHT22;10583;49.084;8.646;2023-05-07T02:18:41;12.70;99.90
20845;DHT22;10583;49.084;8.646;2023-05-07T02:21:07;12.60;99.90
20845;DHT22;10583;49.084;8.646;2023-05-07T02:23:34;12.60;99.90
20845;DHT22;10583;49.084;8.646;2023-05-07T02:26:01;12.50;99.90
20845;DHT22;10583;49.084;8.646;2023-05-07T02:28:28;12.60;99.90
20845;DHT22;10583;49.084;8.646;2023-05-07T02:30:55;12.50;99.90
20845;DHT22;10583;49.084;8.646;2023-05-07T02:33:25;12.50;99.90
20845;DHT22;10583;49.084;8.646;2023-05-07T02:35:52;12.30;99.90
20845;DHT22;10583;49.084;8.646;2023-05-07T02:38:19;12.20;99.90
20845;DHT22;10583;49.084;8.646;2023-05-07T02:40:46;12.20;99.90
20845;DHT22;10583;49.084;8.646;2023-05-07T02:43:12;12.20;99.90
20845;DHT22;10583;49.084;8.646;2023-05-07T02:45:40;12.30;99.90
20845;DHT22;10583;49.084;8.646;2023-05-07T02:48:08;12.30;99.90
20845;DHT22;10583;49.084;8.646;2023-05-07T02:50:36;12.30;99.90
20845;DHT22;10583;49.084;8.646;2023-05-07T02:53:03;12.20;99.90
20845;DHT22;10583;49.084;8.646;2023-05-07T02:55:30;12.20;99.90
20845;DHT22;10583;49.084;8.646;2023-05-07T02:57:57;12.20;99.90
20845;DHT22;10583;49.084;8.646;2023-05-07T03:00:24;12.20;99.90
20845;DHT22;10583;49.084;8.646;2023-05-07T03:02:52;12.20;99.90
20845;DHT22;10583;49.084;8.646;2023-05-07T03:05:18;12.00;99.90
20845;DHT22;10583;49.084;8.646;2023-05-07T03:07:47;12.00;99.90
20845;DHT22;10583;49.084;8.646;2023-05-07T03:10:13;12.00;99.90
20845;DHT22;10583;49.084;8.646;2023-05-07T03:12:41;12.00;99.90
20845;DHT22;10583;49.084;8.646;2023-05-07T03:15:09;12.00;99.90
20845;DHT22;10583;49.084;8.646;2023-05-07T03:17:36;12.00;99.90
20845;DHT22;10583;49.084;8.646;2023-05-07T03:20:04;12.00;99.90
20845;DHT22;10583;49.084;8.646;2023-05-07T03:22:31;12.00;99.90
20845;DHT22;10583;49.084;8.646;2023-05-07T03:24:59;12.00;99.90
20845;DHT22;10583;49.084;8.646;2023-05-07T03:27:26;11.90;99.90
20845;DHT22;10583;49.084;8.646;2023-05-07T03:29:52;11.90;99.90
20845;DHT22;10583;49.084;8.646;2023-05-07T03:32:19;11.80;99.90
20845;DHT22;10583;49.084;8.646;2023-05-07T03:34:46;11.80;99.90
20845;DHT22;10583;49.084;8.646;2023-05-07T03:37:13;11.90;99.90
20845;DHT22;10583;49.084;8.646;2023-05-07T03:39:39;11.90;99.90
20845;DHT22;10583;49.084;8.646;2023-05-07T03:42:07;11.90;99.90
20845;DHT22;10583;49.084;8.646;2023-05-07T03:44:34;11.80;99.90
20845;DHT22;10583;49.084;8.646;2023-05-07T03:47:01;11.80;99.90
20845;DHT22;10583;49.084;8.646;2023-05-07T03:49:28;11.70;99.90
20845;DHT22;10583;49.084;8.646;2023-05-07T03:51:55;11.70;99.90
20845;DHT22;10583;49.084;8.646;2023-05-07T03:54:22;11.70;99.90
20845;DHT22;10583;49.084;8.646;2023-05-07T03:56:49;11.70;99.90
20845;DHT22;10583;49.084;8.646;2023-05-07T03:59:17;11.80;99.90
20845;DHT22;10583;49.084;8.646;2023-05-07T04:01:44;11.80;99.90
20845;DHT22;10583;49.084;8.646;2023-05-07T04:04:11;11.60;99.90
20845;DHT22;10583;49.084;8.646;2023-05-07T04:06:38;11.70;99.90
20845;DHT22;10583;49.084;8.646;2023-05-07T04:09:04;11.70;99.90
20845;DHT22;10583;49.084;8.646;2023-05-07T04:11:31;11.70;99.90
20845;DHT22;10583;49.084;8.646;2023-05-07T04:13:58;11.70;99.90
20845;DHT22;10583;49.084;8.646;2023-05-07T04:16:26;11.70;99.90
20845;DHT22;10583;49.084;8.646;2023-05-07T04:18:53;11.70;99.90
20845;DHT22;10583;49.084;8.646;2023-05-07T04:21:21;11.70;99.90
20845;DHT22;10583;49.084;8.646;2023-05-07T04:23:48;11.70;99.90
20845;DHT22;10583;49.084;8.646;2023-05-07T04:26:15;11.70;99.90
20845;DHT22;10583;49.084;8.646;2023-05-07T04:28:42;11.60;99.90
20845;DHT22;10583;49.084;8.646;2023-05-07T04:31:14;11.70;99.90
20845;DHT22;10583;49.084;8.646;2023-05-07T04:33:43;11.70;99.90
20845;DHT22;10583;49.084;8.646;2023-05-07T04:36:10;11.80;99.90
20845;DHT22;10583;49.084;8.646;2023-05-07T04:38:37;11.80;99.90
20845;DHT22;10583;49.084;8.646;2023-05-07T04:41:05;11.90;99.90
20845;DHT22;10583;49.084;8.646;2023-05-07T04:43:32;12.00;99.90
20845;DHT22;10583;49.084;8.646;2023-05-07T04:45:59;12.00;99.90
20845;DHT22;10583;49.084;8.646;2023-05-07T04:48:26;12.10;99.90
20845;DHT22;10583;49.084;8.646;2023-05-07T04:50:56;12.20;99.90
20845;DHT22;10583;49.084;8.646;2023-05-07T04:53:22;12.20;99.90
20845;DHT22;10583;49.084;8.646;2023-05-07T04:55:55;12.10;99.90
20845;DHT22;10583;49.084;8.646;2023-05-07T04:58:22;12.20;99.90
20845;DHT22;10583;49.084;8.646;2023-05-07T05:00:49;12.30;99.90
20845;DHT22;10583;49.084;8.646;2023-05-07T05:03:16;12.40;99.90
20845;DHT22;10583;49.084;8.646;2023-05-07T05:05:43;12.50;99.90
20845;DHT22;10583;49.084;8.646;2023-05-07T05:08:11;12.70;99.90
20845;DHT22;10583;49.084;8.646;2023-05-07T05:10:38;12.80;99.90
20845;DHT22;10583;49.084;8.646;2023-05-07T05:13:06;12.90;99.90
20845;DHT22;10583;49.084;8.646;2023-05-07T05:15:33;12.90;99.90
20845;DHT22;10583;49.084;8.646;2023-05-07T05:18:00;13.00;99.90
20845;DHT22;10583;49.084;8.646;2023-05-07T05:20:26;13.10;99.90
20845;DHT22;10583;49.084;8.646;2023-05-07T05:22:53;13.10;99.90
20845;DHT22;10583;49.084;8.646;2023-05-07T05:25:21;13.20;99.90
20845;DHT22;10583;49.084;8.646;2023-05-07T05:27:48;13.20;99.90
20845;DHT22;10583;49.084;8.646;2023-05-07T05:30:15;13.30;99.90
20845;DHT22;10583;49.084;8.646;2023-05-07T05:32:42;13.40;99.90
20845;DHT22;10583;49.084;8.646;2023-05-07T05:35:09;13.50;99.90
20845;DHT22;10583;49.084;8.646;2023-05-07T05:37:36;13.60;99.90
20845;DHT22;10583;49.084;8.646;2023-05-07T05:40:04;13.70;99.90
20845;DHT22;10583;49.084;8.646;2023-05-07T05:42:32;13.90;99.90
20845;DHT22;10583;49.084;8.646;2023-05-07T05:44:59;14.10;99.90
20845;DHT22;10583;49.084;8.646;2023-05-07T05:47:26;14.30;99.90
20845;DHT22;10583;49.084;8.646;2023-05-07T05:49:53;14.60;99.90
20845;DHT22;10583;49.084;8.646;2023-05-07T05:52:19;14.70;99.90
20845;DHT22;10583;49.084;8.646;2023-05-07T05:54:49;14.80;99.90
20845;DHT22;10583;49.084;8.646;2023-05-07T05:57:15;15.00;99.90
20845;DHT22;10583;49.084;8.646;2023-05-07T05:59:44;15.10;99.90
20845;DHT22;10583;49.084;8.646;2023-05-07T06:02:12;15.10;99.90
20845;DHT22;10583;49.084;8.646;2023-05-07T06:04:39;15.30;99.90
20845;DHT22;10583;49.084;8.646;2023-05-07T06:07:06;15.40;99.90
20845;DHT22;10583;49.084;8.646;2023-05-07T06:09:33;15.50;99.90
20845;DHT22;10583;49.084;8.646;2023-05-07T06:11:59;15.50;99.90
20845;DHT22;10583;49.084;8.646;2023-05-07T06:14:26;15.60;99.90
20845;DHT22;10583;49.084;8.646;2023-05-07T06:16:54;15.70;99.90
20845;DHT22;10583;49.084;8.646;2023-05-07T06:19:21;15.80;99.90
20845;DHT22;10583;49.084;8.646;2023-05-07T06:21:49;15.80;99.90
20845;DHT22;10583;49.084;8.646;2023-05-07T06:24:15;15.90;99.90
20845;DHT22;10583;49.084;8.646;2023-05-07T06:26:42;16.10;99.90
20845;DHT22;10583;49.084;8.646;2023-05-07T06:29:09;16.20;99.90
20845;DHT22;10583;49.084;8.646;2023-05-07T06:31:36;16.50;99.90
20845;DHT22;10583;49.084;8.646;2023-05-07T06:34:04;16.70;99.90
20845;DHT22;10583;49.084;8.646;2023-05-07T06:36:31;17.00;99.90
20845;DHT22;10583;49.084;8.646;2023-05-07T06:38:58;17.00;99.90
20845;DHT22;10583;49.084;8.646;2023-05-07T06:41:25;17.00;99.90
20845;DHT22;10583;49.084;8.646;2023-05-07T06:43:52;17.10;99.90
20845;DHT22;10583;49.084;8.646;2023-05-07T06:46:19;17.10;99.90
20845;DHT22;10583;49.084;8.646;2023-05-07T06:48:45;17.30;99.90
20845;DHT22;10583;49.084;8.646;2023-05-07T06:51:16;17.40;99.90
20845;DHT22;10583;49.084;8.646;2023-05-07T06:53:43;17.50;99.90
20845;DHT22;10583;49.084;8.646;2023-05-07T06:56:10;17.60;99.90
20845;DHT22;10583;49.084;8.646;2023-05-07T06:58:38;17.90;99.90
20845;DHT22;10583;49.084;8.646;2023-05-07T07:01:04;18.20;99.90
20845;DHT22;10583;49.084;8.646;2023-05-07T07:03:31;18.50;99.90
20845;DHT22;10583;49.084;8.646;2023-05-07T07:05:58;18.60;99.90
20845;DHT22;10583;49.084;8.646;2023-05-07T07:08:28;18.60;99.90
20845;DHT22;10583;49.084;8.646;2023-05-07T07:10:55;18.40;99.90
20845;DHT22;10583;49.084;8.646;2023-05-07T07:13:22;18.10;99.90
20845;DHT22;10583;49.084;8.646;2023-05-07T07:15:49;18.30;99.90
20845;DHT22;10583;49.084;8.646;2023-05-07T07:18:16;18.70;99.90
20845;DHT22;10583;49.084;8.646;2023-05-07T07:20:43;19.10;99.90
20845;DHT22;10583;49.084;8.646;2023-05-07T07:23:10;19.40;99.90
20845;DHT22;10583;49.084;8.646;2023-05-07T07:25:38;19.70;99.90
20845;DHT22;10583;49.084;8.646;2023-05-07T07:28:06;20.10;99.90
20845;DHT22;10583;49.084;8.646;2023-05-07T07:30:33;20.50;99.90
20845;DHT22;10583;49.084;8.646;2023-05-07T07:33:00;20.90;99.90
20845;DHT22;10583;49.084;8.646;2023-05-07T07:35:28;21.00;99.90
20845;DHT22;10583;49.084;8.646;2023-05-07T07:37:55;20.70;99.90
20845;DHT22;10583;49.084;8.646;2023-05-07T07:40:22;20.50;99.90
20845;DHT22;10583;49.084;8.646;2023-05-07T07:42:51;20.70;99.90
20845;DHT22;10583;49.084;8.646;2023-05-07T07:45:19;20.50;99.90
20845;DHT22;10583;49.084;8.646;2023-05-07T07:47:46;20.40;99.90
20845;DHT22;10583;49.084;8.646;2023-05-07T07:50:13;20.80;99.90
20845;DHT22;10583;49.084;8.646;2023-05-07T07:52:40;21.20;99.90
20845;DHT22;10583;49.084;8.646;2023-05-07T07:55:07;21.50;99.90
20845;DHT22;10583;49.084;8.646;2023-05-07T07:57:34;21.50;99.90
20845;DHT22;10583;49.084;8.646;2023-05-07T08:00:06;21.40;99.90
20845;DHT22;10583;49.084;8.646;2023-05-07T08:02:35;21.20;99.90
20845;DHT22;10583;49.084;8.646;2023-05-07T08:05:02;21.20;99.90
20845;DHT22;10583;49.084;8.646;2023-05-07T08:07:32;21.30;99.90
20845;DHT22;10583;49.084;8.646;2023-05-07T08:09:59;21.80;99.90
20845;DHT22;10583;49.084;8.646;2023-05-07T08:12:26;22.20;99.90
20845;DHT22;10583;49.084;8.646;2023-05-07T08:14:53;22.60;99.90
20845;DHT22;10583;49.084;8.646;2023-05-07T08:17:21;22.90;99.90
20845;DHT22;10583;49.084;8.646;2023-05-07T08:19:48;22.70;99.90
20845;DHT22;10583;49.084;8.646;2023-05-07T08:22:15;22.60;99.90
20845;DHT22;10583;49.084;8.646;2023-05-07T08:24:43;22.80;99.90
20845;DHT22;10583;49.084;8.646;2023-05-07T08:27:10;22.90;99.90
20845;DHT22;10583;49.084;8.646;2023-05-07T08:29:37;23.10;99.90
20845;DHT22;10583;49.084;8.646;2023-05-07T08:32:04;23.50;99.90
20845;DHT22;10583;49.084;8.646;2023-05-07T08:34:32;23.90;99.90
20845;DHT22;10583;49.084;8.646;2023-05-07T08:36:59;24.20;99.90
20845;DHT22;10583;49.084;8.646;2023-05-07T08:39:25;24.50;99.90
20845;DHT22;10583;49.084;8.646;2023-05-07T08:41:55;24.90;99.90
20845;DHT22;10583;49.084;8.646;2023-05-07T08:44:23;25.20;99.90
20845;DHT22;10583;49.084;8.646;2023-05-07T08:46:53;25.30;99.90
20845;DHT22;10583;49.084;8.646;2023-05-07T08:49:21;25.30;99.90
20845;DHT22;10583;49.084;8.646;2023-05-07T08:51:49;25.50;99.90
20845;DHT22;10583;49.084;8.646;2023-05-07T08:54:16;25.90;99.90
20845;DHT22;10583;49.084;8.646;2023-05-07T08:56:45;25.90;99.90
20845;DHT22;10583;49.084;8.646;2023-05-07T08:59:12;25.60;99.90
20845;DHT22;10583;49.084;8.646;2023-05-07T09:01:39;25.50;99.90
20845;DHT22;10583;49.084;8.646;2023-05-07T09:04:06;25.30;99.90
20845;DHT22;10583;49.084;8.646;2023-05-07T09:06:33;25.40;99.90
20845;DHT22;10583;49.084;8.646;2023-05-07T09:09:01;25.40;99.90
20845;DHT22;10583;49.084;8.646;2023-05-07T09:11:30;25.20;99.90
20845;DHT22;10583;49.084;8.646;2023-05-07T09:13:58;25.40;99.90
20845;DHT22;10583;49.084;8.646;2023-05-07T09:16:27;25.90;99.90
20845;DHT22;10583;49.084;8.646;2023-05-07T09:18:56;26.00;99.90
20845;DHT22;10583;49.084;8.646;2023-05-07T09:21:23;26.10;99.90
20845;DHT22;10583;49.084;8.646;2023-05-07T09:23:51;26.10;99.90
20845;DHT22;10583;49.084;8.646;2023-05-07T09:26:21;25.80;99.90
20845;DHT22;10583;49.084;8.646;2023-05-07T09:28:48;25.40;99.90
20845;DHT22;10583;49.084;8.646;2023-05-07T09:31:15;25.60;99.90
20845;DHT22;10583;49.084;8.646;2023-05-07T09:33:43;26.00;99.90
20845;DHT22;10583;49.084;8.646;2023-05-07T09:36:10;26.30;99.90
20845;DHT22;10583;49.084;8.646;2023-05-07T09:38:37;26.70;99.90
20845;DHT22;10583;49.084;8.646;2023-05-07T09:41:05;27.00;99.90
20845;DHT22;10583;49.084;8.646;2023-05-07T09:43:34;26.50;99.90
20845;DHT22;10583;49.084;8.646;2023-05-07T09:46:07;26.30;99.90
20845;DHT22;10583;49.084;8.646;2023-05-07T09:48:42;26.40;99.90
20845;DHT22;10583;49.084;8.646;2023-05-07T09:51:21;26.30;99.90
20845;DHT22;10583;49.084;8.646;2023-05-07T09:53:50;26.50;99.20
20845;DHT22;10583;49.084;8.646;2023-05-07T09:56:19;26.90;98.40
20845;DHT22;10583;49.084;8.646;2023-05-07T09:58:48;26.90;98.80
20845;DHT22;10583;49.084;8.646;2023-05-07T10:01:17;27.00;98.70
20845;DHT22;10583;49.084;8.646;2023-05-07T10:03:44;27.00;99.70
20845;DHT22;10583;49.084;8.646;2023-05-07T10:06:13;27.10;98.60
20845;DHT22;10583;49.084;8.646;2023-05-07T10:08:42;26.80;97.40
20845;DHT22;10583;49.084;8.646;2023-05-07T10:11:09;26.70;98.60
20845;DHT22;10583;49.084;8.646;2023-05-07T10:13:37;26.80;99.90
20845;DHT22;10583;49.084;8.646;2023-05-07T10:16:05;26.90;97.90
20845;DHT22;10583;49.084;8.646;2023-05-07T10:18:33;27.00;98.20
20845;DHT22;10583;49.084;8.646;2023-05-07T10:21:04;27.30;96.20
20845;DHT22;10583;49.084;8.646;2023-05-07T10:23:33;27.40;96.50
20845;DHT22;10583;49.084;8.646;2023-05-07T10:26:02;27.50;96.40
20845;DHT22;10583;49.084;8.646;2023-05-07T10:28:33;27.30;96.90
20845;DHT22;10583;49.084;8.646;2023-05-07T10:31:16;27.50;96.80
20845;DHT22;10583;49.084;8.646;2023-05-07T10:33:46;27.40;96.60
20845;DHT22;10583;49.084;8.646;2023-05-07T10:36:13;27.50;96.30
20845;DHT22;10583;49.084;8.646;2023-05-07T10:38:40;27.70;97.00
20845;DHT22;10583;49.084;8.646;2023-05-07T10:41:07;27.40;98.00
20845;DHT22;10583;49.084;8.646;2023-05-07T10:43:42;26.90;97.80
20845;DHT22;10583;49.084;8.646;2023-05-07T10:46:15;27.30;98.70
20845;DHT22;10583;49.084;8.646;2023-05-07T10:49:10;26.90;97.70
20845;DHT22;10583;49.084;8.646;2023-05-07T10:51:41;27.10;98.60
20845;DHT22;10583;49.084;8.646;2023-05-07T10:54:21;27.40;97.80
20845;DHT22;10583;49.084;8.646;2023-05-07T10:56:49;27.70;97.50
20845;DHT22;10583;49.084;8.646;2023-05-07T10:59:35;27.40;98.60
20845;DHT22;10583;49.084;8.646;2023-05-07T11:02:08;27.80;97.60
20845;DHT22;10583;49.084;8.646;2023-05-07T11:04:37;27.90;96.50
20845;DHT22;10583;49.084;8.646;2023-05-07T11:07:31;28.30;96.70
20845;DHT22;10583;49.084;8.646;2023-05-07T11:10:05;28.70;96.10
20845;DHT22;10583;49.084;8.646;2023-05-07T11:12:52;28.80;95.70
20845;DHT22;10583;49.084;8.646;2023-05-07T11:15:39;29.50;94.90
20845;DHT22;10583;49.084;8.646;2023-05-07T11:18:09;29.70;95.50
20845;DHT22;10583;49.084;8.646;2023-05-07T11:20:56;29.20;96.90
20845;DHT22;10583;49.084;8.646;2023-05-07T11:23:54;29.10;94.60
20845;DHT22;10583;49.084;8.646;2023-05-07T11:26:22;29.30;94.80
20845;DHT22;10583;49.084;8.646;2023-05-07T11:28:49;29.50;95.00
20845;DHT22;10583;49.084;8.646;2023-05-07T11:31:21;29.50;94.60
20845;DHT22;10583;49.084;8.646;2023-05-07T11:33:49;29.50;93.70
20845;DHT22;10583;49.084;8.646;2023-05-07T11:36:17;29.60;94.80
20845;DHT22;10583;49.084;8.646;2023-05-07T11:38:44;29.90;95.00
20845;DHT22;10583;49.084;8.646;2023-05-07T11:41:11;29.70;95.80
20845;DHT22;10583;49.084;8.646;2023-05-07T11:43:40;29.20;96.10
20845;DHT22;10583;49.084;8.646;2023-05-07T11:46:20;28.70;94.30
20845;DHT22;10583;49.084;8.646;2023-05-07T11:48:49;28.50;95.30
20845;DHT22;10583;49.084;8.646;2023-05-07T11:51:19;28.50;94.80
20845;DHT22;10583;49.084;8.646;2023-05-07T11:53:46;28.60;97.30
20845;DHT22;10583;49.084;8.646;2023-05-07T11:56:14;28.50;95.50
20845;DHT22;10583;49.084;8.646;2023-05-07T11:58:43;28.50;95.60
20845;DHT22;10583;49.084;8.646;2023-05-07T12:01:11;28.60;94.80
20845;DHT22;10583;49.084;8.646;2023-05-07T12:03:40;28.60;94.50
20845;DHT22;10583;49.084;8.646;2023-05-07T12:06:11;28.70;95.30
20845;DHT22;10583;49.084;8.646;2023-05-07T12:08:39;29.00;94.40
20845;DHT22;10583;49.084;8.646;2023-05-07T12:11:12;29.00;94.90
20845;DHT22;10583;49.084;8.646;2023-05-07T12:13:40;28.90;94.20
20845;DHT22;10583;49.084;8.646;2023-05-07T12:16:07;29.10;94.80
20845;DHT22;10583;49.084;8.646;2023-05-07T12:18:35;29.40;93.70
20845;DHT22;10583;49.084;8.646;2023-05-07T12:21:04;29.00;93.60
20845;DHT22;10583;49.084;8.646;2023-05-07T12:23:34;28.80;94.30
20845;DHT22;10583;49.084;8.646;2023-05-07T12:26:01;28.90;94.30
20845;DHT22;10583;49.084;8.646;2023-05-07T12:28:29;28.60;93.90
20845;DHT22;10583;49.084;8.646;2023-05-07T12:30:56;28.50;94.70
20845;DHT22;10583;49.084;8.646;2023-05-07T12:33:25;28.40;94.30
20845;DHT22;10583;49.084;8.646;2023-05-07T12:35:54;28.20;94.80
20845;DHT22;10583;49.084;8.646;2023-05-07T12:38:22;28.30;95.90
20845;DHT22;10583;49.084;8.646;2023-05-07T12:40:53;28.40;95.30
20845;DHT22;10583;49.084;8.646;2023-05-07T12:43:20;28.50;94.20
20845;DHT22;10583;49.084;8.646;2023-05-07T12:45:49;28.20;94.60
20845;DHT22;10583;49.084;8.646;2023-05-07T12:48:16;28.60;94.60
20845;DHT22;10583;49.084;8.646;2023-05-07T12:50:43;28.50;94.50
20845;DHT22;10583;49.084;8.646;2023-05-07T12:53:11;28.10;94.10
20845;DHT22;10583;49.084;8.646;2023-05-07T12:55:43;27.70;95.40
20845;DHT22;10583;49.084;8.646;2023-05-07T12:58:16;27.40;95.30
20845;DHT22;10583;49.084;8.646;2023-05-07T13:00:43;27.20;94.90
20845;DHT22;10583;49.084;8.646;2023-05-07T13:03:11;26.70;96.30
20845;DHT22;10583;49.084;8.646;2023-05-07T13:05:38;26.40;96.50
20845;DHT22;10583;49.084;8.646;2023-05-07T13:08:05;26.00;97.70
20845;DHT22;10583;49.084;8.646;2023-05-07T13:10:34;25.40;98.40
20845;DHT22;10583;49.084;8.646;2023-05-07T13:13:02;25.20;98.50
20845;DHT22;10583;49.084;8.646;2023-05-07T13:15:30;25.00;98.70
20845;DHT22;10583;49.084;8.646;2023-05-07T13:17:57;24.80;98.00
20845;DHT22;10583;49.084;8.646;2023-05-07T13:20:24;24.60;99.90
20845;DHT22;10583;49.084;8.646;2023-05-07T13:22:50;24.30;99.90
20845;DHT22;10583;49.084;8.646;2023-05-07T13:25:17;23.90;99.90
20845;DHT22;10583;49.084;8.646;2023-05-07T13:27:44;23.30;99.90
20845;DHT22;10583;49.084;8.646;2023-05-07T13:30:11;22.70;99.90
20845;DHT22;10583;49.084;8.646;2023-05-07T13:32:39;22.20;99.90
20845;DHT22;10583;49.084;8.646;2023-05-07T13:35:07;21.50;99.90
20845;DHT22;10583;49.084;8.646;2023-05-07T13:37:34;20.50;99.90
20845;DHT22;10583;49.084;8.646;2023-05-07T13:40:01;19.80;99.90
20845;DHT22;10583;49.084;8.646;2023-05-07T13:42:28;18.90;99.90
20845;DHT22;10583;49.084;8.646;2023-05-07T13:44:55;17.90;99.90
20845;DHT22;10583;49.084;8.646;2023-05-07T13:47:22;17.10;99.90
20845;DHT22;10583;49.084;8.646;2023-05-07T13:49:50;16.40;99.90
20845;DHT22;10583;49.084;8.646;2023-05-07T13:52:16;15.90;99.90
20845;DHT22;10583;49.084;8.646;2023-05-07T13:54:43;15.60;99.90
20845;DHT22;10583;49.084;8.646;2023-05-07T13:57:10;15.50;99.90
20845;DHT22;10583;49.084;8.646;2023-05-07T13:59:37;15.20;99.90
20845;DHT22;10583;49.084;8.646;2023-05-07T14:02:03;15.20;99.90
20845;DHT22;10583;49.084;8.646;2023-05-07T14:04:30;15.10;99.90
20845;DHT22;10583;49.084;8.646;2023-05-07T14:06:58;15.10;99.90
20845;DHT22;10583;49.084;8.646;2023-05-07T14:09:25;15.10;99.90
20845;DHT22;10583;49.084;8.646;2023-05-07T14:11:52;15.20;99.90
20845;DHT22;10583;49.084;8.646;2023-05-07T14:14:19;15.50;99.90
20845;DHT22;10583;49.084;8.646;2023-05-07T14:16:45;15.70;99.90
20845;DHT22;10583;49.084;8.646;2023-05-07T14:19:13;15.80;99.90
20845;DHT22;10583;49.084;8.646;2023-05-07T14:21:39;15.80;99.90
20845;DHT22;10583;49.084;8.646;2023-05-07T14:24:08;15.80;99.90
20845;DHT22;10583;49.084;8.646;2023-05-07T14:26:35;15.60;99.90
20845;DHT22;10583;49.084;8.646;2023-05-07T14:29:01;15.50;99.90
20845;DHT22;10583;49.084;8.646;2023-05-07T14:31:29;15.40;99.90
20845;DHT22;10583;49.084;8.646;2023-05-07T14:33:56;15.30;99.90
20845;DHT22;10583;49.084;8.646;2023-05-07T14:36:24;15.40;99.90
20845;DHT22;10583;49.084;8.646;2023-05-07T14:38:51;15.40;99.90
20845;DHT22;10583;49.084;8.646;2023-05-07T14:41:21;15.40;99.90
20845;DHT22;10583;49.084;8.646;2023-05-07T14:43:48;15.50;99.90
20845;DHT22;10583;49.084;8.646;2023-05-07T14:46:16;15.60;99.90
20845;DHT22;10583;49.084;8.646;2023-05-07T14:48:43;15.70;99.90
20845;DHT22;10583;49.084;8.646;2023-05-07T14:51:10;15.80;99.90
20845;DHT22;10583;49.084;8.646;2023-05-07T14:53:37;16.00;99.90
20845;DHT22;10583;49.084;8.646;2023-05-07T14:56:04;16.10;99.90
20845;DHT22;10583;49.084;8.646;2023-05-07T14:58:33;16.20;99.90
20845;DHT22;10583;49.084;8.646;2023-05-07T15:01:00;16.30;99.90
20845;DHT22;10583;49.084;8.646;2023-05-07T15:03:27;16.30;99.90
20845;DHT22;10583;49.084;8.646;2023-05-07T15:05:54;16.40;99.90
20845;DHT22;10583;49.084;8.646;2023-05-07T15:08:21;16.50;99.90
20845;DHT22;10583;49.084;8.646;2023-05-07T15:10:48;16.40;99.90
20845;DHT22;10583;49.084;8.646;2023-05-07T15:13:15;16.40;99.90
20845;DHT22;10583;49.084;8.646;2023-05-07T15:15:45;16.30;99.90
20845;DHT22;10583;49.084;8.646;2023-05-07T15:18:12;16.30;99.90
20845;DHT22;10583;49.084;8.646;2023-05-07T15:20:39;16.30;99.90
20845;DHT22;10583;49.084;8.646;2023-05-07T15:23:06;16.30;99.90
20845;DHT22;10583;49.084;8.646;2023-05-07T15:25:35;16.30;99.90
20845;DHT22;10583;49.084;8.646;2023-05-07T15:28:02;16.30;99.90
20845;DHT22;10583;49.084;8.646;2023-05-07T15:30:29;16.40;99.90
20845;DHT22;10583;49.084;8.646;2023-05-07T15:32:57;16.40;99.90
20845;DHT22;10583;49.084;8.646;2023-05-07T15:35:24;16.50;99.90